Norwood, CO

11:28 PM MDT on April 01, 2015 (GMT -0600)
Delta | | Change Station
CLOSE
Current Station
Airport
Location: Delta,
Elevation: 5194 ft
Nearby Weather Stations
Active Advisory: Freeze Watch

Elev 5194 ft 38.79 °N, 108.07 °W | Updated 13 minutes ago

Partly Cloudy
Partly Cloudy
57 °F
Feels Like 57 °F
N
12
Wind Variable Wind from WSW

Today
High -- | Low -- °F
--% Chance of Precip.
Yesterday
High -- | Low -- °F
Precip. -- in
6:58 AM 7:36 PM
Waxing Gibbous, 95% visible
Pressure 29.85 in
Visibility 10.0 miles
Clouds Clear
Dew Point 5 °F
Humidity 13%
Rainfall 0.00 in
Snow Depth Not available.
UV 0 out of 12
Pollen 10.00 out of 12
Air Quality Not available.
Flu Activity Not available.
METAR KAJZ 020515Z AUTO 25010KT 10SM CLR 14/M15 A2985 RMK AO2 T01371148

More Conditions Fewer Conditions

Pressure 29.85 in
Visibility 10.0 miles
Clouds Clear
Dew Point 5 °F
Humidity 13%
Rainfall 0.00 in
Snow Depth Not available.
UV 0 out of 12
Pollen 10.00 out of 12
Air Quality Not available.
Flu Activity Not available.
METAR KAJZ 020515Z AUTO 25010KT 10SM CLR 14/M15 A2985 RMK AO2 T01371148

More Conditions Fewer Conditions

10-Day Weather Forecast

Almanac

Astronomy

Apr. 01, 2015 Rise Set
Actual Time
Civil Twilight
Nautical Twilight
Astronomical Twilight
Moon
Length of Visible Light
Length of Day
Tomorrow will be .
, % of the Moon is Illuminated

Today's Extremes

State Highs State Lows

Community

WunderPhotos

Upload Photos

1,810,201 photos uploaded!

WunderBlogs® & News

Nearby

Air Quality

  Air Quality AQ Index Pollutant
Not available.

Snow Depth

Station Depth Elevation

Earthquake Activity

City Distance Mag. Time & Date
Minimum magnitude displayed is 2.5.

Coastal Water Temperatures

Place Temperature

Stations

Nearby Weather Stations

Station Location Temp. Windchill Dew Point Humidity Wind Precip. Elev Updated Type
                   
Freeze Watch
Statement as of 9:09 PM MDT on April 01, 2015

... Freeze watch remains in effect from late Thursday night
through Friday morning...

* timing... sub-freezing temperatures are possible from 3 am
until 9 am Friday morning.

* Temperatures... possibly ranging from the mid 20s to lower 30s.

* Impacts... below freezing temperatures could damage budding
fruit trees and other sensitive vegetation.

Precautionary/preparedness actions...

A freeze watch means sub-freezing temperatures are possible.
These conditions could kill crops and other sensitive vegetation.